createdAt,value
2023-05-02T00:01:21.831Z,3.90
2023-05-02T00:06:24.881Z,3.60
2023-05-02T00:11:27.737Z,3.50
2023-05-02T00:16:30.521Z,4.10
2023-05-02T00:21:33.407Z,4.00
2023-05-02T00:26:36.205Z,3.40
2023-05-02T00:31:41.731Z,3.60
2023-05-02T00:36:44.547Z,3.70
2023-05-02T00:41:47.749Z,3.60
2023-05-02T00:46:51.134Z,4.30
2023-05-02T00:51:55.069Z,4.60
2023-05-02T00:56:57.837Z,4.10
2023-05-02T01:02:06.872Z,4.20
2023-05-02T01:07:48.871Z,4.40
2023-05-02T01:13:10.116Z,4.40
2023-05-02T01:18:18.600Z,3.90
2023-05-02T01:23:53.345Z,3.90
2023-05-02T01:29:02.399Z,4.30
2023-05-02T01:34:10.364Z,4.40
2023-05-02T01:39:18.984Z,4.30
2023-05-02T01:44:23.702Z,4.10
2023-05-02T01:49:29.673Z,4.10
2023-05-02T01:54:35.490Z,4.60
2023-05-02T01:59:41.552Z,4.00
2023-05-02T02:04:47.488Z,4.00
2023-05-02T02:09:50.663Z,4.10
2023-05-02T02:15:27.579Z,4.10
2023-05-02T02:20:32.378Z,4.50
2023-05-02T02:25:36.484Z,4.00
2023-05-02T02:30:39.388Z,4.70
2023-05-02T02:35:47.011Z,4.10
2023-05-02T02:40:56.560Z,4.20
2023-05-02T02:46:25.126Z,4.10
2023-05-02T02:51:57.627Z,4.30
2023-05-02T02:57:19.027Z,3.90
2023-05-02T03:02:27.560Z,4.60
2023-05-02T03:07:31.696Z,4.60
2023-05-02T03:12:34.482Z,4.20
2023-05-02T03:17:37.255Z,4.60
2023-05-02T03:22:40.045Z,4.80
2023-05-02T03:27:42.822Z,4.60
2023-05-02T03:32:45.592Z,4.40
2023-05-02T03:37:48.351Z,4.40
2023-05-02T03:42:51.262Z,4.40
2023-05-02T03:47:54.072Z,4.60
2023-05-02T03:52:57.307Z,5.10
2023-05-02T03:58:03.181Z,4.90
2023-05-02T04:03:07.295Z,4.80
2023-05-02T04:08:10.739Z,5.10
2023-05-02T04:13:13.516Z,4.60
2023-05-02T04:18:16.332Z,5.20
2023-05-02T04:23:19.146Z,6.10
2023-05-02T04:28:22.582Z,7.10
2023-05-02T04:33:25.386Z,6.90
2023-05-02T04:38:28.208Z,6.40
2023-05-02T04:43:33.629Z,5.30
2023-05-02T04:48:36.416Z,5.40
2023-05-02T04:53:39.226Z,6.10
2023-05-02T04:58:41.994Z,6.00
2023-05-02T05:03:47.348Z,6.30
2023-05-02T05:08:50.351Z,6.40
2023-05-02T05:13:53.261Z,5.80
2023-05-02T05:18:56.109Z,5.00
2023-05-02T05:23:58.879Z,5.10
2023-05-02T05:29:01.847Z,4.80
2023-05-02T05:34:04.776Z,4.90
2023-05-02T05:39:07.853Z,5.20
2023-05-02T05:44:10.571Z,5.40
2023-05-02T05:49:17.884Z,5.40
2023-05-02T05:54:21.018Z,5.30
2023-05-02T05:59:23.771Z,4.90
2023-05-02T06:04:27.038Z,4.60
2023-05-02T06:09:29.898Z,4.90
2023-05-02T06:14:32.714Z,5.30
2023-05-02T06:19:35.953Z,5.20
2023-05-02T06:24:38.688Z,4.90
2023-05-02T06:29:41.448Z,5.70
2023-05-02T06:34:44.317Z,5.80
2023-05-02T06:39:47.195Z,5.10
2023-05-02T06:44:52.447Z,5.30
2023-05-02T06:49:56.313Z,5.20
2023-05-02T06:54:59.379Z,5.40
2023-05-02T07:00:02.690Z,6.00
2023-05-02T07:05:06.408Z,5.50
2023-05-02T07:10:10.557Z,7.60
2023-05-02T07:15:14.062Z,7.20
2023-05-02T07:20:16.841Z,7.80
2023-05-02T07:25:19.770Z,7.50
2023-05-02T07:30:24.451Z,7.10
2023-05-02T07:35:27.316Z,6.00
2023-05-02T07:40:30.155Z,5.30
2023-05-02T07:45:32.967Z,5.70
2023-05-02T07:50:35.808Z,5.70
2023-05-02T07:55:38.675Z,6.70
2023-05-02T08:00:41.482Z,6.00
2023-05-02T08:05:44.785Z,5.90
2023-05-02T08:10:47.595Z,6.20
2023-05-02T08:15:50.874Z,5.80
2023-05-02T08:20:56.471Z,5.90
2023-05-02T08:25:59.261Z,6.40
2023-05-02T08:31:02.054Z,6.30
2023-05-02T08:36:18.524Z,6.10
2023-05-02T08:41:22.443Z,7.90
2023-05-02T08:46:26.180Z,6.30
2023-05-02T08:51:32.621Z,5.70
2023-05-02T08:56:35.647Z,6.20
2023-05-02T09:01:41.796Z,5.90
2023-05-02T09:11:50.831Z,5.50
2023-05-02T09:17:02.659Z,5.90
2023-05-02T09:22:05.822Z,4.50
2023-05-02T09:27:08.602Z,6.50
2023-05-02T09:32:17.879Z,6.30
2023-05-02T09:37:37.782Z,7.10
2023-05-02T09:42:41.103Z,6.90
2023-05-02T09:47:45.374Z,6.60
2023-05-02T09:53:09.676Z,6.70
2023-05-02T09:58:24.075Z,7.30
2023-05-02T10:03:28.627Z,7.30
2023-05-02T10:08:36.451Z,6.70
2023-05-02T10:13:45.050Z,7.30
2023-05-02T10:18:55.806Z,6.90
2023-05-02T10:23:59.374Z,7.50
2023-05-02T10:29:02.713Z,6.50
2023-05-02T10:34:10.782Z,7.30
2023-05-02T10:39:16.404Z,7.10
2023-05-02T10:44:37.202Z,6.90
2023-05-02T10:49:55.395Z,6.80
2023-05-02T10:55:24.157Z,5.00
2023-05-02T11:00:32.551Z,4.90
2023-05-02T11:06:06.195Z,5.50
2023-05-02T11:11:46.414Z,4.50
2023-05-02T11:17:01.402Z,4.70
2023-05-02T11:22:16.389Z,5.00
2023-05-02T11:27:31.998Z,4.40
2023-05-02T11:32:44.170Z,3.50
2023-05-02T11:37:54.387Z,4.30
2023-05-02T11:42:58.870Z,4.80
2023-05-02T11:48:03.093Z,3.50
2023-05-02T11:53:11.631Z,4.20
2023-05-02T11:58:20.193Z,4.00
2023-05-02T12:03:29.432Z,4.30
2023-05-02T12:08:32.810Z,4.40
2023-05-02T12:13:35.729Z,4.00
2023-05-02T12:18:38.823Z,3.80
2023-05-02T12:23:44.674Z,4.40
2023-05-02T12:28:55.001Z,5.30
2023-05-02T12:34:00.299Z,4.00
2023-05-02T12:39:04.689Z,4.10
2023-05-02T12:44:08.094Z,3.90
2023-05-02T12:49:12.777Z,3.60
2023-05-02T12:54:22.458Z,3.60
2023-05-02T12:59:30.061Z,4.70
2023-05-02T13:04:42.162Z,6.70
2023-05-02T13:09:45.001Z,4.80
2023-05-02T13:14:48.259Z,5.30
2023-05-02T13:20:00.930Z,4.70
2023-05-02T13:25:07.794Z,4.20
2023-05-02T13:30:11.989Z,3.70
2023-05-02T13:35:16.671Z,3.70
2023-05-02T13:40:19.599Z,3.90
2023-05-02T13:45:22.873Z,5.10
2023-05-02T13:50:25.624Z,5.10
2023-05-02T13:55:28.396Z,5.20
2023-05-02T14:00:31.313Z,4.80
2023-05-02T14:05:34.116Z,5.90
2023-05-02T14:10:40.505Z,6.00
2023-05-02T14:15:45.691Z,5.70
2023-05-02T14:20:48.657Z,6.50
2023-05-02T14:25:53.566Z,6.30
2023-05-02T14:30:56.536Z,5.50
2023-05-02T14:36:00.721Z,5.80
2023-05-02T14:41:03.794Z,5.10
2023-05-02T14:46:11.293Z,5.20
2023-05-02T14:51:15.274Z,5.90
2023-05-02T14:56:18.808Z,5.80
2023-05-02T15:01:22.888Z,5.80
2023-05-02T15:06:31.373Z,5.70
2023-05-02T15:11:34.579Z,4.60
2023-05-02T15:16:37.576Z,7.10
2023-05-02T15:21:40.811Z,5.60
2023-05-02T15:26:43.575Z,7.40
2023-05-02T15:31:46.476Z,5.30
2023-05-02T15:36:50.536Z,4.40
2023-05-02T15:41:53.830Z,3.60
2023-05-02T15:46:56.720Z,4.50
2023-05-02T15:52:01.245Z,6.30
2023-05-02T15:57:04.392Z,5.60
2023-05-02T16:02:07.389Z,7.70
2023-05-02T16:07:11.467Z,4.70
2023-05-02T16:12:15.235Z,5.00
2023-05-02T16:17:18.664Z,6.40
2023-05-02T16:22:21.974Z,5.90
2023-05-02T16:27:25.580Z,4.80
2023-05-02T16:32:28.381Z,5.50
2023-05-02T16:37:34.175Z,4.00
2023-05-02T16:42:37.162Z,5.40
2023-05-02T16:47:42.038Z,5.00
2023-05-02T16:52:44.931Z,5.30
2023-05-02T16:57:48.136Z,4.20
2023-05-02T17:02:57.610Z,3.70
2023-05-02T17:08:00.563Z,2.80
2023-05-02T17:13:03.659Z,3.30
2023-05-02T17:18:06.982Z,3.40
2023-05-02T17:23:09.907Z,3.80
2023-05-02T17:28:12.957Z,4.90
2023-05-02T17:33:16.094Z,5.60
2023-05-02T17:38:18.980Z,3.10
2023-05-02T17:43:21.824Z,4.50
2023-05-02T17:48:25.091Z,4.40
2023-05-02T17:53:30.235Z,4.20
2023-05-02T17:58:36.681Z,3.60
2023-05-02T18:03:40.442Z,3.40
2023-05-02T18:08:44.377Z,3.30
2023-05-02T18:13:49.073Z,2.90
2023-05-02T18:18:51.946Z,3.10
2023-05-02T18:23:57.059Z,3.20
2023-05-02T18:28:59.833Z,3.20
2023-05-02T18:34:02.753Z,2.60
2023-05-02T18:39:06.049Z,3.30
2023-05-02T18:44:10.660Z,3.40
2023-05-02T18:49:15.748Z,2.40
2023-05-02T18:54:19.904Z,2.40
2023-05-02T18:59:23.177Z,1.80
2023-05-02T19:04:26.227Z,2.10
2023-05-02T19:09:29.268Z,2.00
2023-05-02T19:14:33.466Z,1.90
2023-05-02T19:19:36.282Z,2.30
2023-05-02T19:24:39.337Z,2.00
2023-05-02T19:29:42.169Z,2.30
2023-05-02T19:34:45.609Z,2.20
2023-05-02T19:39:48.379Z,2.90
2023-05-02T19:44:51.864Z,2.30
2023-05-02T19:49:54.970Z,3.20
2023-05-02T19:54:58.870Z,2.80
2023-05-02T20:00:01.896Z,3.00
2023-05-02T20:05:05.593Z,2.50
2023-05-02T20:10:10.603Z,2.40
2023-05-02T20:15:14.634Z,2.00
2023-05-02T20:20:17.570Z,2.10
2023-05-02T20:25:25.066Z,2.60
2023-05-02T20:30:29.138Z,2.20
2023-05-02T20:35:32.189Z,2.60
2023-05-02T20:40:37.813Z,2.80
2023-05-02T20:45:41.041Z,2.10
2023-05-02T20:50:52.373Z,2.90
2023-05-02T20:55:55.165Z,2.50
2023-05-02T21:00:57.950Z,2.90
2023-05-02T21:06:00.746Z,2.40
2023-05-02T21:11:13.432Z,2.70
2023-05-02T21:16:22.110Z,2.90
2023-05-02T21:21:25.024Z,3.10
2023-05-02T21:26:27.832Z,3.30
2023-05-02T21:31:32.186Z,3.40
2023-05-02T21:36:34.954Z,3.80
2023-05-02T21:41:37.855Z,5.20
2023-05-02T21:46:41.255Z,3.20
2023-05-02T21:51:44.096Z,3.00
2023-05-02T21:56:46.853Z,3.30
2023-05-02T22:01:49.666Z,4.10
2023-05-02T22:06:53.469Z,3.10
2023-05-02T22:11:56.264Z,2.80
2023-05-02T22:17:01.433Z,3.80
2023-05-02T22:22:05.512Z,5.10
2023-05-02T22:27:08.408Z,5.80
2023-05-02T22:32:13.774Z,5.40
2023-05-02T22:37:16.568Z,6.50
2023-05-02T22:42:20.662Z,7.30
2023-05-02T22:47:23.604Z,6.20
2023-05-02T22:52:27.555Z,5.00
2023-05-02T22:57:30.825Z,5.60
2023-05-02T23:02:36.440Z,5.80
2023-05-02T23:07:39.401Z,6.60
2023-05-02T23:12:42.497Z,6.10
2023-05-02T23:17:45.406Z,5.30
2023-05-02T23:22:48.266Z,5.10
2023-05-02T23:27:51.025Z,6.10
2023-05-02T23:32:54.252Z,5.10
2023-05-02T23:37:59.915Z,6.40
2023-05-02T23:43:03.040Z,6.70
2023-05-02T23:48:06.151Z,5.90
2023-05-02T23:53:08.998Z,6.50
2023-05-02T23:58:11.858Z,6.10
